Thunder radar more information blitzortung!


Radar de pluja more information rain snow radar


Visita la nostra xarxa de llocs de meteo:

Template documentation
and downloads

And another site



No particular awareness of the weather is required.    There are no Weather-warnings

Pagina Historial Weather Underground text

Diari Resum Agost 30, 2017 Unitats:  Imperial    Mètric   Tant
« Previous Dia
SegĂźent Dia »
Diari Setmana Mensual Anual Personalitzada
  Maxima: Minima: Media:
Temperatura: 82.8 °F 65.7 °F 74.5 °F
Punt de rosada: 65.8 °F 55.8 °F 61.2 °F
Humitat: 84 % 48 % 65 %
Wind Speed: 11.5 mph 0 mph 3.7 mph
RĂ fegues de vent: 11.5 mph - -
Vent:- - SW
Pression baro: 30 in 29.9 in -
Precipitacions: 0 in    
Historical Graphs
 
 
Dades de taula per Agost 30, 2017
Temps Temperatura Punt de rosada Pression baro Vent Wind Speed RĂ fegues de vent Humitat Rainfall Rate (Hourly)
00:01 73.9 °F 55.8 °F 29.9 in SW 3.5 mph   53 % 0 in
00:05 69.4 °F 57.2 °F 30 in WSW 5 mph 8 mph 65 % 0 in
00:15 69.3 °F 57.7 °F 30 in WSW 2 mph 4 mph 67 % 0 in
00:30 69.1 °F 57.7 °F 30 in WSW 2 mph 5 mph 67 % 0 in
00:40 69.3 °F 58.3 °F 30 in WSW 3 mph 6 mph 68 % 0 in
00:50 69.4 °F 58.5 °F 30 in WSW 1 mph 6 mph 68 % 0 in
01:00 69.3 °F 58.3 °F 30 in West 2 mph 3 mph 68 % 0 in
01:10 69.4 °F 58.5 °F 30 in WSW 2 mph 3 mph 68 % 0 in
01:20 69.1 °F 58.5 °F 30 in Calm   2 mph 69 % 0 in
01:30 68.7 °F 58.5 °F 30 in WSW 2 mph 3 mph 70 % 0 in
01:40 68.7 °F 58.5 °F 30 in WSW 2 mph 4 mph 70 % 0 in
01:50 68.9 °F 58.6 °F 30 in SW 3 mph 3 mph 70 % 0 in
02:00 68.9 °F 59.2 °F 30 in WSW 2 mph 2 mph 71 % 0 in
02:10 68.5 °F 59.2 °F 30 in WSW 2 mph 3 mph 72 % 0 in
02:20 67.6 °F 59.4 °F 30 in WSW 2 mph 3 mph 75 % 0 in
02:30 67.1 °F 59.4 °F 30 in WSW 2 mph 5 mph 76 % 0 in
02:40 66.7 °F 59.4 °F 30 in WSW 2 mph 3 mph 77 % 0 in
02:50 66.6 °F 59.5 °F 30 in Calm   3 mph 78 % 0 in
03:00 66.4 °F 60.1 °F 30 in Calm     80 % 0 in
03:10 66.4 °F 60.1 °F 30 in Calm   2 mph 80 % 0 in
03:20 66.2 °F 59.7 °F 30 in SW 2 mph 3 mph 80 % 0 in
03:30 66.2 °F 60.3 °F 30 in Calm   3 mph 81 % 0 in
03:40 66 °F 60.4 °F 30 in SW 2 mph 2 mph 82 % 0 in
03:50 66 °F 60.4 °F 30 in WSW 2 mph 3 mph 82 % 0 in
04:00 65.8 °F 60.4 °F 30 in WSW 1 mph 3 mph 83 % 0 in
04:10 65.7 °F 60.6 °F 30 in SW 1 mph 2 mph 84 % 0 in
04:20 65.7 °F 60.6 °F 30 in Calm   2 mph 84 % 0 in
04:30 65.8 °F 61 °F 30 in Calm   2 mph 84 % 0 in
04:40 66 °F 61 °F 30 in Calm   2 mph 84 % 0 in
04:50 66.2 °F 61 °F 30 in SE 1 mph 2 mph 83 % 0 in
05:00 66.7 °F 61.7 °F 29.9 in Calm     84 % 0 in
05:10 67.3 °F 61.9 °F 29.9 in South 1 mph 3 mph 83 % 0 in
05:20 68.2 °F 62.8 °F 29.9 in SE 1 mph 3 mph 83 % 0 in
05:30 68.4 °F 62.2 °F 29.9 in East 1 mph 3 mph 81 % 0 in
05:40 68.2 °F 61.9 °F 29.9 in NE 1 mph 4 mph 80 % 0 in
05:50 68.2 °F 62.1 °F 29.9 in Calm   2 mph 81 % 0 in
10:56 73 °F 65.8 °F 29.9 in Calm   1.6 mph 78 % 0 in
11:01 73.9 °F 65.5 °F 29.9 in SW 2.3 mph 2.3 mph 75 % 0 in
11:06 74.3 °F 65.5 °F 29.9 in SSW 2.3 mph 2.3 mph 74 % 0 in
11:11 75.2 °F 65.7 °F 29.9 in SSW 4 mph 4 mph 72 % 0 in
11:16 75.4 °F 64.6 °F 29.9 in South 2.3 mph 2.3 mph 69 % 0 in
11:21 75.6 °F 64.8 °F 29.9 in WSW 2.3 mph 2.3 mph 69 % 0 in
11:26 76.1 °F 65.1 °F 29.9 in SE 1.4 mph 1.4 mph 69 % 0 in
11:31 75.2 °F 63.9 °F 29.9 in SSE 4.6 mph 4.6 mph 68 % 0 in
11:36 74.8 °F 64 °F 29.9 in SE 2.6 mph 2.9 mph 69 % 0 in
11:41 75.6 °F 64.8 °F 30 in ESE 1.4 mph 1.4 mph 69 % 0 in
11:46 76.3 °F 64.9 °F 30 in SW 2.3 mph 2.3 mph 68 % 0 in
11:51 77.4 °F 65.1 °F 30 in WSW 4.6 mph 4.6 mph 66 % 0 in
11:56 78.6 °F 64.9 °F 29.9 in SSW 1.4 mph 1.4 mph 63 % 0 in
12:01 78.6 °F 64.9 °F 29.9 in WSW 5.8 mph 5.8 mph 63 % 0 in
12:06 79.5 °F 65.5 °F 29.9 in South 2.6 mph 2.6 mph 62 % 0 in
12:11 80.6 °F 65.5 °F 29.9 in SSW 3.8 mph 3.8 mph 60 % 0 in
12:16 81.1 °F 64.9 °F 29.9 in SW 2.3 mph 2.3 mph 58 % 0 in
12:21 81.3 °F 64.6 °F 29.9 in WSW 4.6 mph 4.6 mph 57 % 0 in
12:26 81 °F 63.9 °F 29.9 in SW 4.6 mph 4.6 mph 56 % 0 in
12:31 81.5 °F 63.9 °F 29.9 in WSW 5.8 mph 5.8 mph 55 % 0 in
12:36 82.8 °F 64.4 °F 29.9 in SSE 4.6 mph 4.6 mph 54 % 0 in
12:41 82.6 °F 63.7 °F 29.9 in West 5.8 mph 5.8 mph 53 % 0 in
12:46 82.8 °F 63.9 °F 29.9 in SW 6.2 mph 6.2 mph 53 % 0 in
12:51 82 °F 62.8 °F 29.9 in SW 5.8 mph 5.8 mph 52 % 0 in
12:56 82 °F 62.8 °F 29.9 in SW 3.5 mph 3.5 mph 52 % 0 in
13:01 81.9 °F 62.4 °F 29.9 in SW 6.9 mph 6.9 mph 52 % 0 in
13:06 81.5 °F 62.2 °F 29.9 in SW 7.4 mph 7.4 mph 52 % 0 in
13:11 81.1 °F 61.9 °F 29.9 in South 3.6 mph 3.6 mph 52 % 0 in
13:16 81.3 °F 62.1 °F 29.9 in SW 5.8 mph 5.8 mph 52 % 0 in
13:21 81.3 °F 61.5 °F 29.9 in SW 8.1 mph 8.1 mph 51 % 0 in
13:26 81.7 °F 62.2 °F 29.9 in SW 4.6 mph 4.6 mph 52 % 0 in
13:31 82.4 °F 62.4 °F 29.9 in WNW 4.6 mph 4.6 mph 51 % 0 in
13:41 82.4 °F 61.3 °F 29.9 in WSW 5.8 mph 5.8 mph 49 % 0 in
13:46 82.6 °F 62.1 °F 29.9 in SSW 8.1 mph 8.1 mph 50 % 0 in
13:51 82.8 °F 62.2 °F 29.9 in SW 10.4 mph 10.4 mph 50 % 0 in
13:56 82 °F 61.5 °F 29.9 in South 4.6 mph 4.6 mph 50 % 0 in
14:01 82 °F 61.5 °F 29.9 in SE 6.9 mph 6.9 mph 50 % 0 in
14:06 82 °F 61 °F 29.9 in SW 6 mph 6 mph 49 % 0 in
14:11 82 °F 61 °F 29.9 in SSW 5.8 mph 5.8 mph 49 % 0 in
14:16 81.3 °F 60.3 °F 29.9 in WSW 11.2 mph 11.2 mph 49 % 0 in
14:21 80.8 °F 59.4 °F 29.9 in WSW 8.1 mph 8.1 mph 48 % 0 in
14:26 80.8 °F 59.4 °F 29.9 in SSE 8.1 mph 8.1 mph 48 % 0 in
14:27 80.8 °F 59.4 °F 29.9 in SW 3.6 mph 3.8 mph 48 % 0 in
14:32 80.6 °F 59.7 °F 29.9 in SSW 6.9 mph 6.9 mph 49 % 0 in
14:37 80.4 °F 60.1 °F 29.9 in SSW 5.8 mph 5.8 mph 50 % 0 in
14:42 80.1 °F 59.2 °F 29.9 in SW 9.2 mph 9.2 mph 49 % 0 in
14:47 79.9 °F 59 °F 29.9 in SW 10.4 mph 10.4 mph 49 % 0 in
14:52 79.5 °F 59.2 °F 29.9 in SSW 8.1 mph 8.1 mph 50 % 0 in
14:57 79.7 °F 59.4 °F 29.9 in WSW 6.9 mph 6.9 mph 50 % 0 in
15:02 79.3 °F 59.2 °F 29.9 in SW 8.1 mph 8.1 mph 50 % 0 in
15:07 79.2 °F 58.8 °F 29.9 in WSW 7.8 mph 7.8 mph 50 % 0 in
15:12 79.3 °F 59.5 °F 29.9 in SW 4.6 mph 4.6 mph 51 % 0 in
15:17 79.5 °F 59.7 °F 29.9 in SSW 6.9 mph 6.9 mph 51 % 0 in
15:22 79.5 °F 59.7 °F 29.9 in SW 11.5 mph 11.5 mph 51 % 0 in
15:27 79.5 °F 59.7 °F 29.9 in SSW 6.9 mph 6.9 mph 51 % 0 in
15:32 79.9 °F 60.1 °F 29.9 in SW 5.8 mph 5.8 mph 51 % 0 in
15:37 79.7 °F 60.1 °F 29.9 in SW 9.2 mph 9.2 mph 51 % 0 in
15:42 79.5 °F 59.7 °F 29.9 in SW 7.4 mph 7.4 mph 51 % 0 in
15:47 79.5 °F 59.2 °F 29.9 in SW 9.2 mph 9.2 mph 50 % 0 in
15:57 79.5 °F 59.7 °F 29.9 in SW 9.2 mph 9.2 mph 51 % 0 in
16:02 79.3 °F 59.2 °F 29.9 in SW 8.1 mph 8.1 mph 50 % 0 in
16:07 79.2 °F 59.5 °F 29.9 in SW 10.4 mph 10.4 mph 51 % 0 in
16:12 79.3 °F 59.5 °F 29.9 in SSE 7.6 mph 7.6 mph 51 % 0 in
16:17 79.3 °F 59.5 °F 29.9 in SSW 5.8 mph 5.8 mph 51 % 0 in
16:22 79 °F 59.4 °F 29.9 in SW 5.8 mph 5.8 mph 51 % 0 in
16:27 78.8 °F 59.2 °F 29.9 in SW 8.1 mph 8.1 mph 51 % 0 in
16:32 78.8 °F 59.2 °F 29.9 in SW 8.1 mph 8.1 mph 51 % 0 in
16:37 79 °F 59.4 °F 29.9 in West 5.8 mph 5.9 mph 51 % 0 in
16:42 78.8 °F 59.2 °F 29.9 in South 9.2 mph 9.2 mph 51 % 0 in
16:52 78.4 °F 58.8 °F 29.9 in SSW 10.4 mph 10.4 mph 51 % 0 in
16:57 78.6 °F 59.5 °F 29.9 in SSW 5.4 mph 5.4 mph 52 % 0 in
17:02 78.4 °F 59.4 °F 29.9 in SW 6.9 mph 6.9 mph 52 % 0 in
17:07 78.1 °F 59.5 °F 29.9 in SSE 5.8 mph 5.8 mph 53 % 0 in
17:12 77.9 °F 59.4 °F 29.9 in SW 8.1 mph 8.1 mph 53 % 0 in
17:17 77.7 °F 59.2 °F 29.9 in SW 8.1 mph 8.1 mph 53 % 0 in
17:22 77.7 °F 59.2 °F 29.9 in WSW 5.8 mph 5.8 mph 53 % 0 in
17:27 77.7 °F 59.2 °F 29.9 in WSW 5.8 mph 5.8 mph 53 % 0 in
17:32 77.7 °F 59.2 °F 29.9 in South 10.4 mph 10.4 mph 53 % 0 in
17:37 77.4 °F 58.8 °F 29.9 in SSW 8.1 mph 8.1 mph 53 % 0 in
17:52 77.5 °F 59.5 °F 29.9 in SSW 3.5 mph 3.5 mph 54 % 0 in
17:57 77.5 °F 59.5 °F 29.9 in South 3.5 mph 3.5 mph 54 % 0 in
18:02 77.5 °F 60.1 °F 29.9 in WSW 5.8 mph 5.8 mph 55 % 0 in
18:07 77.7 °F 60.3 °F 29.9 in SW 5.8 mph 5.8 mph 55 % 0 in
18:12 77.4 °F 59.9 °F 29.9 in WSW 5.8 mph 5.8 mph 55 % 0 in
18:17 77.2 °F 59.7 °F 29.9 in South 5.8 mph 5.8 mph 55 % 0 in
18:22 77 °F 59.5 °F 29.9 in South 4.6 mph 4.6 mph 55 % 0 in
18:27 76.8 °F 60.4 °F 29.9 in SW 4.6 mph 4.6 mph 57 % 0 in
18:32 76.6 °F 60.3 °F 29.9 in WSW 7.6 mph 7.6 mph 57 % 0 in
18:37 76.3 °F 60.4 °F 29.9 in SSW 4.6 mph 4.6 mph 58 % 0 in
18:42 76.3 °F 60.4 °F 29.9 in West 5.8 mph 5.8 mph 58 % 0 in
18:47 76.3 °F 60.4 °F 29.9 in South 5.8 mph 5.8 mph 58 % 0 in
18:52 76.3 °F 61 °F 29.9 in WSW 9.2 mph 9.2 mph 59 % 0 in
18:57 76.1 °F 60.6 °F 29.9 in WSW 4 mph 4 mph 59 % 0 in
19:02 76.1 °F 61.2 °F 29.9 in SW 3.5 mph 3.5 mph 60 % 0 in
19:07 75.7 °F 61 °F 29.9 in SSW 3.5 mph 3.5 mph 60 % 0 in
19:12 75.7 °F 61 °F 29.9 in SW 4.6 mph 4.6 mph 60 % 0 in
19:17 75.6 °F 60.6 °F 29.9 in SSW 5.8 mph 5.8 mph 60 % 0 in
19:22 75.2 °F 60.4 °F 29.9 in WSW 4.7 mph 4.7 mph 60 % 0 in
19:27 75.2 °F 60.8 °F 29.9 in SW 5.8 mph 5.8 mph 61 % 0 in
19:32 75.2 °F 60.8 °F 29.9 in SW 5.8 mph 5.8 mph 61 % 0 in
19:37 75 °F 61.2 °F 29.9 in SW 5.8 mph 5.8 mph 62 % 0 in
19:42 74.8 °F 61 °F 29.9 in SW 7.4 mph 7.4 mph 62 % 0 in
19:47 74.8 °F 61.3 °F 29.9 in WSW 2.4 mph 2.4 mph 63 % 0 in
19:52 74.7 °F 61.2 °F 29.9 in WSW 4.6 mph 4.6 mph 63 % 0 in
19:57 74.7 °F 61.2 °F 29.9 in SSW 3.5 mph 3.5 mph 63 % 0 in
20:02 74.5 °F 61.2 °F 29.9 in SW 2.4 mph 2.4 mph 63 % 0 in
20:07 74.5 °F 61.2 °F 29.9 in SW 3.5 mph 3.5 mph 63 % 0 in
20:12 74.3 °F 61 °F 29.9 in SW 2.3 mph 2.6 mph 63 % 0 in
20:17 74.1 °F 61.2 °F 29.9 in WSW 3.5 mph 3.5 mph 64 % 0 in
20:20 70.3 °F 62.4 °F 29.9 in SW 1 mph 2 mph 76 % 0 in
20:22 73.9 °F 61 °F 29.9 in SW 2.4 mph 2.6 mph 64 % 0 in
20:27 73.9 °F 61 °F 29.9 in WSW 5.8 mph 5.8 mph 64 % 0 in
20:30 70.3 °F 62.4 °F 29.9 in SW 1 mph 2 mph 76 % 0 in
20:32 73.8 °F 61.3 °F 29.9 in SW 2.4 mph 2.4 mph 65 % 0 in
20:37 73.6 °F 61.2 °F 29.9 in WSW 4.6 mph 4.6 mph 65 % 0 in
20:40 70.5 °F 62.6 °F 29.9 in WSW 2 mph 3 mph 76 % 0 in
20:42 73.6 °F 61.2 °F 29.9 in WSW 2.3 mph 2.3 mph 65 % 0 in
20:47 73.6 °F 61.5 °F 29.9 in WSW 2.3 mph 2.3 mph 66 % 0 in
20:48 73.6 °F 61.2 °F 29.9 in WNW 2.3 mph 2.3 mph 65 % 0 in
20:50 70.5 °F 63 °F 29.9 in WSW 1 mph 3 mph 77 % 0 in
20:53 73.4 °F 61 °F 29.9 in SSW 4.6 mph 4.6 mph 65 % 0 in
20:58 73.4 °F 61.3 °F 29.9 in SW 3.5 mph 3.5 mph 66 % 0 in
21:00 70.5 °F 63 °F 29.9 in Calm   2 mph 77 % 0 in
21:03 73.2 °F 61.2 °F 29.9 in WSW 4.6 mph 4.6 mph 66 % 0 in
21:08 73.2 °F 61.2 °F 29.9 in WSW 3.5 mph 3.5 mph 66 % 0 in
21:10 70.3 °F 62.8 °F 29.9 in SW 1 mph 3 mph 77 % 0 in
21:18 73 °F 61 °F 29.9 in SSW 5.8 mph 5.8 mph 66 % 0 in
21:20 70.2 °F 62.6 °F 29.9 in SW 1 mph 2 mph 77 % 0 in
21:23 72.9 °F 61.3 °F 29.9 in SW 3.5 mph 3.5 mph 67 % 0 in
21:28 72.9 °F 61.3 °F 29.9 in WSW 4.6 mph 4.6 mph 67 % 0 in
21:30 70.2 °F 63 °F 29.9 in SW 1 mph 2 mph 78 % 0 in
21:33 72.7 °F 61.5 °F 29.9 in WSW 2.3 mph 2.3 mph 68 % 0 in
21:38 72.7 °F 61.5 °F 29.9 in SW 2.3 mph 2.3 mph 68 % 0 in
21:40 70.2 °F 63 °F 29.9 in Calm   1 mph 78 % 0 in
21:43 72.5 °F 61.3 °F 29.9 in SSW 2.3 mph 2.3 mph 68 % 0 in
21:48 72.5 °F 61.7 °F 29.9 in SW 2.3 mph 2.3 mph 69 % 0 in
21:50 70.2 °F 63 °F 29.9 in WSW 1 mph   78 % 0 in
21:58 72.5 °F 61.7 °F 29.9 in WSW 1.4 mph 1.4 mph 69 % 0 in
22:00 70.3 °F 63.1 °F 29.9 in WSW 1 mph 1 mph 78 % 0 in
22:03 72.3 °F 61.5 °F 29.9 in Calm     69 % 0 in
22:08 72.1 °F 61.3 °F 29.9 in SW 2.3 mph 2.3 mph 69 % 0 in
22:10 70.3 °F 63.5 °F 29.9 in Calm     79 % 0 in
22:13 72 °F 61.5 °F 29.9 in WSW 2.3 mph 2.3 mph 70 % 0 in
22:18 72 °F 61.5 °F 29.9 in WSW 1.4 mph 1.4 mph 70 % 0 in
22:20 70.3 °F 63.5 °F 29.9 in Calm   1 mph 79 % 0 in
22:23 72 °F 61.5 °F 29.9 in Calm     70 % 0 in
22:28 71.8 °F 61.5 °F 29.9 in WSW 1.6 mph 1.6 mph 70 % 0 in
22:30 70.3 °F 63.1 °F 29.9 in NW 1 mph 2 mph 78 % 0 in
22:33 71.8 °F 61.9 °F 29.9 in West 1.4 mph   71 % 0 in
22:38 71.6 °F 61.7 °F 29.9 in SW 2.3 mph 2.3 mph 71 % 0 in
22:40 70 °F 62.8 °F 29.9 in Calm   1 mph 78 % 0 in
22:43 71.2 °F 61.7 °F 29.9 in SW 2.4 mph 2.4 mph 72 % 0 in
22:48 71.1 °F 61.5 °F 29.9 in SW 2.3 mph 2.3 mph 72 % 0 in
22:50 69.8 °F 63 °F 29.9 in Calm   2 mph 79 % 0 in
22:53 71.1 °F 62.1 °F 29.9 in WSW 1.2 mph   73 % 0 in
23:00 69.8 °F 62.6 °F 29.9 in SW 1 mph 2 mph 78 % 0 in
23:03 70.9 °F 62.2 °F 29.9 in Calm     74 % 0 in
23:08 71.1 °F 62.4 °F 29.9 in North 1.2 mph 1.4 mph 74 % 0 in
23:10 69.8 °F 62.6 °F 29.9 in WSW 1 mph 2 mph 78 % 0 in
23:13 71.2 °F 62.4 °F 29.9 in NNW 1.4 mph   74 % 0 in
23:18 71.2 °F 63 °F 29.9 in NNE 1.2 mph 1.2 mph 75 % 0 in
23:20 69.8 °F 62.6 °F 29.9 in WSW 1 mph 1 mph 78 % 0 in
23:23 71.2 °F 63 °F 29.9 in NNE 1.2 mph 1.2 mph 75 % 0 in
23:28 71.1 °F 62.8 °F 29.9 in Calm     75 % 0 in
23:30 69.8 °F 62.6 °F 29.9 in Calm   1 mph 78 % 0 in
23:33 71.1 °F 62.8 °F 29.9 in West 1.2 mph   75 % 0 in
23:38 70.9 °F 62.6 °F 29.9 in SW 1.2 mph 1.2 mph 75 % 0 in
23:40 70 °F 62.8 °F 29.9 in Calm   2 mph 78 % 0 in
23:43 70.7 °F 62.4 °F 29.9 in SW 1.2 mph 1.4 mph 75 % 0 in
23:48 70.5 °F 62.2 °F 29.9 in Calm     75 % 0 in
23:50 69.8 °F 63 °F 29.9 in SW 1 mph 2 mph 79 % 0 in
23:53 70.3 °F 62.1 °F 29.9 in Calm     75 % 0 in
23:58 70.3 °F 62.4 °F 29.9 in Calm     76 % 0 in
Meteo Sesrovires
Elogis d' Weather Underground - 3.5 mb

Guio original per  Jim McMurry - jmcmurry@mwt.net Adaptat per a la plantilla per  Wim van der Kuil - Leuven-Template.eu

Trobareu la nostra informacio del temps tambe a:

Weather Underground

AWEKAS